createdAt,value
2022-07-28T00:02:53.455Z,0
2022-07-28T00:07:53.676Z,0
2022-07-28T00:12:52.771Z,0
2022-07-28T00:17:53.774Z,0
2022-07-28T00:22:52.918Z,0
2022-07-28T00:27:52.967Z,0
2022-07-28T00:32:53.239Z,0
2022-07-28T00:37:54.537Z,0
2022-07-28T00:42:53.572Z,0
2022-07-28T00:47:52.929Z,0
2022-07-28T00:52:53.159Z,0
2022-07-28T00:57:53.420Z,0
2022-07-28T01:02:54.123Z,0
2022-07-28T01:07:53.440Z,0
2022-07-28T01:12:53.744Z,0
2022-07-28T01:17:52.829Z,0
2022-07-28T01:22:53.078Z,0
2022-07-28T01:27:53.207Z,0
2022-07-28T01:32:53.311Z,0
2022-07-28T01:37:53.684Z,0
2022-07-28T01:42:52.844Z,0
2022-07-28T01:47:53.794Z,0
2022-07-28T01:52:53.108Z,0
2022-07-28T01:57:53.501Z,0
2022-07-28T02:02:54.756Z,0
2022-07-28T02:07:52.950Z,0
2022-07-28T02:12:53.170Z,0
2022-07-28T02:17:53.242Z,0
2022-07-28T02:22:53.500Z,0
2022-07-28T02:27:53.611Z,0
2022-07-28T02:32:54.374Z,0
2022-07-28T02:37:53.478Z,0
2022-07-28T02:42:52.973Z,0
2022-07-28T02:47:53.102Z,0
2022-07-28T02:52:53.480Z,0
2022-07-28T02:57:57.167Z,0
2022-07-28T03:02:53.015Z,0
2022-07-28T03:07:53.396Z,0
2022-07-28T03:12:53.843Z,0
2022-07-28T03:17:53.396Z,0
2022-07-28T03:22:53.128Z,0
2022-07-28T03:27:53.732Z,0
2022-07-28T03:32:53.187Z,0
2022-07-28T03:37:53.445Z,0
2022-07-28T03:42:53.830Z,5
2022-07-28T03:47:53.069Z,5
2022-07-28T03:52:53.790Z,9.8
2022-07-28T03:57:53.024Z,9.8
2022-07-28T04:02:53.738Z,18.2
2022-07-28T04:07:53.161Z,18.2
2022-07-28T04:12:53.500Z,31
2022-07-28T04:17:52.976Z,31
2022-07-28T04:22:53.181Z,37.3
2022-07-28T04:27:53.450Z,37.3
2022-07-28T04:32:53.731Z,50
2022-07-28T04:37:52.982Z,50
2022-07-28T04:42:53.261Z,92.8
2022-07-28T04:47:53.487Z,92.8
2022-07-28T04:52:53.759Z,81.6
2022-07-28T04:57:54.030Z,81.6
2022-07-28T05:02:53.159Z,73.6
2022-07-28T05:07:53.084Z,73.6
2022-07-28T05:12:53.453Z,99.3
2022-07-28T05:17:53.598Z,99.3
2022-07-28T05:22:54.007Z,121.2
2022-07-28T05:27:53.533Z,121.2
2022-07-28T05:32:53.885Z,126.6
2022-07-28T05:37:53.264Z,126.6
2022-07-28T05:42:53.150Z,65.4
2022-07-28T05:47:53.378Z,65.4
2022-07-28T05:52:53.511Z,92.4
2022-07-28T05:57:53.589Z,92.4
2022-07-28T06:02:53.103Z,103.4
2022-07-28T06:07:53.275Z,103.4
2022-07-28T06:12:53.391Z,147.8
2022-07-28T06:17:53.466Z,147.8
2022-07-28T06:22:53.771Z,157.8
2022-07-28T06:27:53.988Z,157.8
2022-07-28T06:32:53.387Z,138.8
2022-07-28T06:37:55.251Z,138.8
2022-07-28T06:42:53.381Z,157.2
2022-07-28T06:47:53.835Z,157.2
2022-07-28T06:52:53.981Z,167.4
2022-07-28T06:57:53.330Z,167.4
2022-07-28T07:02:53.495Z,148.6
2022-07-28T07:07:53.892Z,148.6
2022-07-28T07:12:53.149Z,207.4
2022-07-28T07:17:53.406Z,207.4
2022-07-28T07:22:53.666Z,233.8
2022-07-28T07:27:53.832Z,233.8
2022-07-28T07:32:53.866Z,283
2022-07-28T07:37:53.989Z,283
2022-07-28T07:42:53.214Z,240.4
2022-07-28T07:47:53.388Z,240.4
2022-07-28T07:52:53.532Z,279.4
2022-07-28T07:57:53.784Z,279.4
2022-07-28T08:02:53.988Z,339.7
2022-07-28T08:07:53.309Z,339.7
2022-07-28T08:12:53.466Z,265.6
2022-07-28T08:17:53.640Z,265.6
2022-07-28T08:22:53.974Z,338.8
2022-07-28T08:27:53.249Z,338.8
2022-07-28T08:32:57.522Z,350.8
2022-07-28T08:37:53.747Z,350.8
2022-07-28T08:42:53.076Z,248.8
2022-07-28T08:48:10.252Z,248.8
2022-07-28T08:52:53.753Z,340
2022-07-28T08:57:58.844Z,340
2022-07-28T09:02:53.502Z,466.2
2022-07-28T09:07:56.094Z,466.2
2022-07-28T09:12:54.084Z,554
2022-07-28T09:17:53.223Z,554
2022-07-28T09:22:54.096Z,467.8
2022-07-28T09:27:53.777Z,467.8
2022-07-28T09:32:54.160Z,316.8
2022-07-28T09:37:53.424Z,316.8
2022-07-28T09:42:53.777Z,427.2
2022-07-28T09:47:55.137Z,427.2
2022-07-28T09:52:53.512Z,425.8
2022-07-28T09:57:54.108Z,425.8
2022-07-28T10:02:53.482Z,380
2022-07-28T10:07:53.927Z,380
2022-07-28T10:12:54.016Z,386.5
2022-07-28T10:17:53.354Z,386.5
2022-07-28T10:22:53.437Z,326.3
2022-07-28T10:27:53.620Z,326.3
2022-07-28T10:32:54.073Z,275.4
2022-07-28T10:37:53.252Z,275.4
2022-07-28T10:42:53.410Z,261.2
2022-07-28T10:47:54.369Z,261.2
2022-07-28T10:52:59.700Z,276.8
2022-07-28T10:58:12.593Z,276.8
2022-07-28T11:02:55.418Z,278.8
2022-07-28T11:07:54.109Z,278.8
2022-07-28T11:12:53.314Z,222.4
2022-07-28T11:17:53.734Z,222.4
2022-07-28T11:22:54.286Z,180.6
2022-07-28T11:27:53.460Z,180.6
2022-07-28T11:32:53.876Z,188.8
2022-07-28T11:37:54.038Z,188.8
2022-07-28T11:42:56.735Z,206.2
2022-07-28T11:47:53.880Z,206.2
2022-07-28T11:52:54.007Z,228.8
2022-07-28T11:57:54.211Z,228.8
2022-07-28T12:02:53.745Z,240.3
2022-07-28T12:07:54.203Z,240.3
2022-07-28T12:12:53.233Z,240.2
2022-07-28T12:17:53.346Z,240.2
2022-07-28T12:22:53.715Z,256.8
2022-07-28T12:27:55.508Z,256.8
2022-07-28T12:32:53.599Z,284.8
2022-07-28T12:37:54.049Z,284.8
2022-07-28T12:42:53.983Z,309.3
2022-07-28T12:47:54.129Z,309.3
2022-07-28T12:52:53.424Z,323.8
2022-07-28T12:57:53.536Z,323.8
2022-07-28T13:02:56.633Z,329.6
2022-07-28T13:07:55.431Z,329.6
2022-07-28T13:12:54.150Z,320.3
2022-07-28T13:17:53.440Z,320.3
2022-07-28T13:22:53.691Z,281.2
2022-07-28T13:27:56.087Z,281.2
2022-07-28T13:32:53.843Z,273.4
2022-07-28T13:37:54.181Z,273.4
2022-07-28T13:42:57.354Z,292.4
2022-07-28T13:47:53.912Z,292.4
2022-07-28T13:52:53.274Z,313.6
2022-07-28T13:57:56.920Z,313.6
2022-07-28T14:02:54.432Z,317
2022-07-28T14:07:53.766Z,317
2022-07-28T14:12:54.318Z,291.8
2022-07-28T14:17:53.889Z,291.8
2022-07-28T14:22:54.146Z,390.8
2022-07-28T14:27:53.234Z,390.8
2022-07-28T14:32:53.412Z,258.8
2022-07-28T14:38:54.919Z,258.8
2022-07-28T14:42:54.005Z,227.2
2022-07-28T14:47:53.427Z,227.2
2022-07-28T14:52:53.823Z,402.2
2022-07-28T14:57:55.470Z,402.2
2022-07-28T15:02:54.291Z,600.8
2022-07-28T15:07:53.698Z,600.8
2022-07-28T15:12:53.433Z,557.2
2022-07-28T15:17:54.089Z,557.2
2022-07-28T15:22:53.590Z,506.4
2022-07-28T15:27:53.815Z,506.4
2022-07-28T15:32:57.589Z,489.8
2022-07-28T15:37:53.926Z,489.8
2022-07-28T15:42:53.426Z,454.4
2022-07-28T15:47:53.661Z,454.4
2022-07-28T15:52:54.022Z,416.4
2022-07-28T15:57:53.502Z,416.4
2022-07-28T16:02:54.439Z,387
2022-07-28T16:07:53.985Z,387
2022-07-28T16:12:53.514Z,313.4
2022-07-28T16:17:53.597Z,313.4
2022-07-28T16:22:53.738Z,321.8
2022-07-28T16:27:54.153Z,321.8
2022-07-28T16:32:53.478Z,335
2022-07-28T16:37:53.751Z,335
2022-07-28T16:42:54.072Z,316.2
2022-07-28T16:47:54.037Z,316.2
2022-07-28T16:52:54.362Z,131
2022-07-28T16:57:53.546Z,131
2022-07-28T17:02:54.224Z,60.2
2022-07-28T17:07:54.362Z,60.2
2022-07-28T17:12:53.673Z,53.4
2022-07-28T17:17:53.824Z,53.4
2022-07-28T17:22:54.186Z,65.4
2022-07-28T17:27:54.438Z,65.4
2022-07-28T17:32:53.524Z,62.6
2022-07-28T17:37:53.884Z,62.6
2022-07-28T17:42:54.248Z,133.4
2022-07-28T17:47:54.279Z,133.4
2022-07-28T17:52:53.835Z,126.2
2022-07-28T17:57:53.994Z,126.2
2022-07-28T18:02:54.564Z,85
2022-07-28T18:07:59.468Z,85
2022-07-28T18:12:53.605Z,57
2022-07-28T18:17:56.276Z,57
2022-07-28T18:22:54.369Z,39.8
2022-07-28T18:27:53.593Z,39.8
2022-07-28T18:32:53.702Z,33
2022-07-28T18:37:53.891Z,33
2022-07-28T18:42:54.014Z,26.2
2022-07-28T18:47:53.548Z,26.2
2022-07-28T18:52:55.471Z,20.2
2022-07-28T18:57:53.839Z,20.2
2022-07-28T19:02:54.226Z,13.2
2022-07-28T19:07:53.449Z,13.2
2022-07-28T19:12:54.141Z,6.6
2022-07-28T19:18:12.368Z,6.6
2022-07-28T19:22:53.530Z,0
2022-07-28T19:27:53.842Z,0
2022-07-28T19:32:54.044Z,0
2022-07-28T19:37:54.381Z,0
2022-07-28T19:42:53.712Z,0
2022-07-28T19:47:53.908Z,0
2022-07-28T19:52:56.748Z,0
2022-07-28T19:57:53.794Z,0
2022-07-28T20:02:54.367Z,0
2022-07-28T20:07:54.473Z,0
2022-07-28T20:12:53.879Z,0
2022-07-28T20:17:54.224Z,0
2022-07-28T20:22:53.492Z,0
2022-07-28T20:27:53.930Z,0
2022-07-28T20:32:54.113Z,0
2022-07-28T20:37:54.262Z,0
2022-07-28T20:42:54.604Z,0
2022-07-28T20:47:54.145Z,0
2022-07-28T20:52:54.377Z,0
2022-07-28T20:57:54.307Z,0
2022-07-28T21:02:54.105Z,0
2022-07-28T21:08:16.131Z,0
2022-07-28T21:12:54.017Z,0
2022-07-28T21:17:54.167Z,0
2022-07-28T21:22:54.166Z,0
2022-07-28T21:27:54.498Z,0
2022-07-28T21:32:53.950Z,0
2022-07-28T21:37:54.093Z,0
2022-07-28T21:42:54.539Z,0
2022-07-28T21:47:53.971Z,0
2022-07-28T21:52:54.477Z,0
2022-07-28T21:57:54.445Z,0
2022-07-28T22:02:53.721Z,0
2022-07-28T22:07:53.856Z,0
2022-07-28T22:12:54.185Z,0
2022-07-28T22:17:54.310Z,0
2022-07-28T22:22:53.842Z,0
2022-07-28T22:27:53.982Z,0
2022-07-28T22:32:54.133Z,0
2022-07-28T22:37:54.202Z,0
2022-07-28T22:42:54.564Z,0
2022-07-28T22:47:53.986Z,0
2022-07-28T22:52:54.259Z,0
2022-07-28T22:57:54.455Z,0
2022-07-28T23:02:53.542Z,0
2022-07-28T23:07:59.297Z,0
2022-07-28T23:12:59.027Z,0
2022-07-28T23:17:54.213Z,0
2022-07-28T23:22:54.284Z,0
2022-07-28T23:27:54.430Z,0
2022-07-28T23:32:54.587Z,0
2022-07-28T23:37:53.751Z,0
2022-07-28T23:42:54.262Z,0
2022-07-28T23:47:59.297Z,0
2022-07-28T23:52:53.874Z,0
2022-07-28T23:57:53.947Z,0
